createdAt,value
2022-09-01T00:00:49.371Z,17.15
2022-09-01T00:05:57.298Z,17.21
2022-09-01T00:11:10.614Z,17.25
2022-09-01T00:16:16.832Z,17.26
2022-09-01T00:21:34.603Z,17.27
2022-09-01T00:26:38.684Z,17.26
2022-09-01T00:31:45.249Z,17.26
2022-09-01T00:36:51.921Z,17.25
2022-09-01T00:41:55.720Z,17.19
2022-09-01T00:47:03.025Z,17.16
2022-09-01T00:52:12.620Z,17.06
2022-09-01T00:57:16.995Z,17.03
2022-09-01T01:02:20.971Z,16.99
2022-09-01T01:07:27.551Z,16.95
2022-09-01T01:12:33.253Z,16.90
2022-09-01T01:17:37.434Z,16.85
2022-09-01T01:23:10.780Z,16.83
2022-09-01T01:28:20.080Z,16.79
2022-09-01T01:33:26.982Z,16.70
2022-09-01T01:38:39.113Z,16.62
2022-09-01T01:43:44.537Z,16.54
2022-09-01T01:48:47.773Z,16.51
2022-09-01T01:53:53.719Z,16.45
2022-09-01T01:59:02.498Z,16.40
2022-09-01T02:04:06.014Z,16.33
2022-09-01T02:09:09.804Z,16.25
2022-09-01T02:14:23.146Z,16.19
2022-09-01T02:19:26.586Z,16.12
2022-09-01T02:24:32.474Z,16.06
2022-09-01T02:29:40.204Z,16.02
2022-09-01T02:34:53.815Z,15.95
2022-09-01T02:39:58.971Z,15.90
2022-09-01T02:45:03.944Z,15.81
2022-09-01T02:50:14.128Z,15.77
2022-09-01T02:55:22.432Z,15.71
2022-09-01T03:00:31.642Z,15.66
2022-09-01T03:05:39.580Z,15.57
2022-09-01T03:10:45.974Z,15.51
2022-09-01T03:15:51.408Z,15.44
2022-09-01T03:20:56.284Z,15.40
2022-09-01T03:26:09.716Z,15.34
2022-09-01T03:31:17.231Z,15.28
2022-09-01T03:36:20.938Z,15.24
2022-09-01T03:41:28.877Z,15.17
2022-09-01T03:46:37.122Z,15.11
2022-09-01T03:51:40.939Z,15.05
2022-09-01T03:56:46.393Z,15.04
2022-09-01T04:02:03.586Z,15.03
2022-09-01T04:07:07.860Z,14.94
2022-09-01T04:12:20.865Z,14.93
2022-09-01T04:17:42.929Z,14.92
2022-09-01T04:22:47.878Z,14.89
2022-09-01T04:27:56.566Z,14.88
2022-09-01T04:33:02.882Z,14.87
2022-09-01T04:38:08.553Z,14.86
2022-09-01T04:43:15.904Z,14.90
2022-09-01T04:48:23.919Z,14.86
2022-09-01T04:53:28.992Z,14.86
2022-09-01T04:58:35.035Z,14.87
2022-09-01T05:03:43.474Z,14.91
2022-09-01T05:08:52.313Z,14.96
2022-09-01T05:13:57.972Z,15.02
2022-09-01T05:19:07.372Z,15.08
2022-09-01T05:24:12.211Z,15.18
2022-09-01T05:29:21.218Z,15.26
2022-09-01T05:34:28.242Z,15.35
2022-09-01T05:39:37.925Z,15.48
2022-09-01T05:44:44.570Z,15.66
2022-09-01T05:49:51.569Z,15.88
2022-09-01T05:55:00.304Z,16.12
2022-09-01T06:00:11.323Z,16.45
2022-09-01T06:05:19.725Z,17.70
2022-09-01T06:10:24.504Z,19.43
2022-09-01T06:15:29.541Z,20.60
2022-09-01T06:20:37.688Z,21.40
2022-09-01T06:25:41.286Z,23.09
2022-09-01T06:30:45.727Z,23.92
2022-09-01T06:35:53.207Z,25.33
2022-09-01T06:41:02.688Z,26.21
2022-09-01T06:46:06.394Z,26.23
2022-09-01T06:51:15.939Z,26.76
2022-09-01T06:56:21.327Z,29.40
2022-09-01T07:01:27.632Z,28.63
2022-09-01T07:12:25.433Z,31.19
2022-09-01T07:17:33.345Z,29.66
2022-09-01T07:28:10.696Z,27.20
2022-09-01T07:39:47.278Z,25.78
2022-09-01T07:44:05.415Z,25.24
2022-09-01T07:54:37.576Z,24.11
2022-09-01T07:59:43.041Z,23.78
2022-09-01T08:04:49.423Z,23.33
2022-09-01T08:09:56.016Z,23.29
2022-09-01T08:15:37.945Z,23.08
2022-09-01T08:20:30.500Z,22.96
2022-09-01T08:25:38.509Z,22.96
2022-09-01T08:30:52.110Z,22.95
2022-09-01T08:35:57.730Z,22.81
2022-09-01T08:41:03.777Z,22.67
2022-09-01T08:46:15.473Z,22.61
2022-09-01T08:51:27.324Z,22.50
2022-09-01T08:56:43.181Z,22.39
2022-09-01T09:01:55.629Z,22.24
2022-09-01T09:07:09.060Z,22.05
2022-09-01T09:12:49.045Z,22.00
2022-09-01T09:18:06.930Z,22.15
2022-09-01T09:23:31.310Z,22.36
2022-09-01T09:28:36.543Z,22.43
2022-09-01T09:33:52.157Z,22.47
2022-09-01T09:39:12.405Z,22.41
2022-09-01T09:44:27.715Z,22.32
2022-09-01T09:49:42.263Z,22.38
2022-09-01T09:55:19.991Z,22.58
2022-09-01T10:00:27.007Z,22.68
2022-09-01T10:05:38.492Z,22.77
2022-09-01T10:10:44.350Z,22.93
2022-09-01T10:15:54.600Z,22.93
2022-09-01T10:21:04.222Z,23.09
2022-09-01T10:26:13.088Z,23.08
2022-09-01T10:31:20.371Z,23.09
2022-09-01T10:36:25.204Z,23.33
2022-09-01T10:42:00.769Z,23.64
2022-09-01T10:47:14.626Z,23.76
2022-09-01T10:52:57.586Z,24.06
2022-09-01T11:04:00.741Z,24.53
2022-09-01T11:09:07.956Z,24.55
2022-09-01T11:14:20.013Z,24.80
2022-09-01T11:19:46.995Z,24.63
2022-09-01T11:25:44.714Z,24.33
2022-09-01T11:30:57.803Z,24.24
2022-09-01T11:36:06.197Z,24.33
2022-09-01T11:41:09.679Z,24.20
2022-09-01T11:46:22.594Z,24.19
2022-09-01T11:51:28.718Z,24.16
2022-09-01T11:56:32.155Z,24.13
2022-09-01T12:01:37.570Z,24.17
2022-09-01T12:06:54.987Z,24.07
2022-09-01T12:11:59.636Z,24.04
2022-09-01T12:17:35.382Z,24.10
2022-09-01T12:22:48.067Z,23.87
2022-09-01T12:27:52.225Z,23.79
2022-09-01T12:38:35.801Z,23.56
2022-09-01T12:43:43.201Z,23.50
2022-09-01T12:48:49.925Z,23.50
2022-09-01T12:54:04.500Z,23.54
2022-09-01T12:59:14.168Z,23.50
2022-09-01T13:04:31.226Z,23.63
2022-09-01T13:09:36.741Z,23.63
2022-09-01T13:14:40.530Z,23.68
2022-09-01T13:19:46.130Z,23.68
2022-09-01T13:24:51.080Z,23.78
2022-09-01T13:29:54.957Z,23.97
2022-09-01T13:34:58.352Z,24.03
2022-09-01T13:40:04.363Z,24.18
2022-09-01T13:45:09.632Z,24.23
2022-09-01T13:50:23.172Z,24.15
2022-09-01T13:55:31.859Z,24.03
2022-09-01T14:00:40.869Z,24.20
2022-09-01T14:05:46.648Z,24.08
2022-09-01T14:10:55.126Z,23.94
2022-09-01T14:16:04.731Z,23.87
2022-09-01T14:21:15.302Z,23.81
2022-09-01T14:26:22.928Z,23.75
2022-09-01T14:31:32.032Z,23.71
2022-09-01T14:36:35.248Z,23.66
2022-09-01T14:41:40.659Z,23.59
2022-09-01T14:46:44.310Z,23.49
2022-09-01T14:57:37.701Z,23.49
2022-09-01T15:02:39.205Z,23.45
2022-09-01T15:07:44.804Z,23.55
2022-09-01T15:12:58.248Z,23.57
2022-09-01T15:18:03.996Z,23.50
2022-09-01T15:23:08.114Z,23.57
2022-09-01T15:28:14.133Z,23.58
2022-09-01T15:33:17.953Z,23.51
2022-09-01T15:38:21.789Z,23.50
2022-09-01T15:43:30.742Z,23.52
2022-09-01T15:48:34.620Z,23.38
2022-09-01T15:53:38.692Z,23.39
2022-09-01T15:59:01.301Z,23.34
2022-09-01T16:04:08.875Z,23.33
2022-09-01T16:09:13.810Z,23.20
2022-09-01T16:14:23.828Z,23.12
2022-09-01T16:19:46.946Z,23.00
2022-09-01T16:24:55.114Z,22.99
2022-09-01T16:30:07.487Z,22.89
2022-09-01T16:35:11.183Z,22.86
2022-09-01T16:40:30.094Z,22.79
2022-09-01T16:46:01.895Z,22.72
2022-09-01T16:51:15.894Z,22.62
2022-09-01T16:56:29.018Z,22.54
2022-09-01T17:01:48.550Z,22.46
2022-09-01T17:07:00.193Z,22.35
2022-09-01T17:12:34.249Z,22.29
2022-09-01T17:17:46.491Z,22.24
2022-09-01T17:22:57.770Z,22.17
2022-09-01T17:28:07.174Z,22.09
2022-09-01T17:33:23.540Z,22.05
2022-09-01T17:38:31.992Z,22.00
2022-09-01T17:43:48.511Z,21.95
2022-09-01T17:49:01.279Z,21.82
2022-09-01T17:54:27.439Z,21.70
2022-09-01T17:59:41.772Z,21.53
2022-09-01T18:05:24.558Z,21.47
2022-09-01T18:10:44.403Z,21.29
2022-09-01T18:16:11.648Z,21.25
2022-09-01T18:21:33.137Z,21.12
2022-09-01T18:26:43.476Z,21.00
2022-09-01T18:32:10.111Z,20.91
2022-09-01T18:37:22.625Z,20.81
2022-09-01T18:42:41.576Z,20.69
2022-09-01T18:47:57.172Z,20.62
2022-09-01T18:53:16.348Z,20.57
2022-09-01T18:58:33.575Z,20.47
2022-09-01T19:03:41.532Z,20.40
2022-09-01T19:08:54.491Z,20.32
2022-09-01T19:14:04.733Z,20.23
2022-09-01T19:19:24.083Z,20.15
2022-09-01T19:24:37.678Z,20.07
2022-09-01T19:29:53.031Z,20.01
2022-09-01T19:35:02.352Z,19.91
2022-09-01T19:40:12.086Z,19.84
2022-09-01T19:45:28.264Z,19.75
2022-09-01T19:50:40.932Z,19.70
2022-09-01T19:55:54.628Z,19.60
2022-09-01T20:01:02.301Z,19.48
2022-09-01T20:06:10.397Z,19.41
2022-09-01T20:11:22.030Z,19.33
2022-09-01T20:16:31.585Z,19.28
2022-09-01T20:21:41.875Z,19.23
2022-09-01T20:26:57.842Z,19.11
2022-09-01T20:32:04.446Z,19.02
2022-09-01T20:37:15.004Z,18.97
2022-09-01T20:42:31.848Z,18.89
2022-09-01T20:47:38.367Z,18.78
2022-09-01T20:52:57.300Z,18.73
2022-09-01T20:58:09.121Z,18.64
2022-09-01T21:03:21.139Z,18.64
2022-09-01T21:08:49.217Z,18.56
2022-09-01T21:14:05.157Z,18.47
2022-09-01T21:19:24.993Z,18.46
2022-09-01T21:24:30.942Z,18.37
2022-09-01T21:29:55.504Z,18.28
2022-09-01T21:35:05.591Z,18.19
2022-09-01T21:40:12.397Z,18.11
2022-09-01T21:45:20.736Z,18.08
2022-09-01T21:50:27.691Z,18.02
2022-09-01T21:55:32.681Z,17.97
2022-09-01T22:00:41.633Z,17.90
2022-09-01T22:05:46.740Z,17.77
2022-09-01T22:10:58.011Z,17.71
2022-09-01T22:16:05.666Z,17.62
2022-09-01T22:21:12.523Z,17.56
2022-09-01T22:26:21.403Z,17.51
2022-09-01T22:31:28.324Z,17.44
2022-09-01T22:36:35.308Z,17.37
2022-09-01T22:41:40.153Z,17.27
2022-09-01T22:46:48.404Z,17.21
2022-09-01T22:51:52.892Z,17.14
2022-09-01T22:56:59.552Z,17.10
2022-09-01T23:02:05.352Z,17.00
2022-09-01T23:07:09.312Z,16.98
2022-09-01T23:12:13.745Z,16.95
2022-09-01T23:17:22.763Z,16.90
2022-09-01T23:22:28.211Z,16.90
2022-09-01T23:27:32.363Z,16.81
2022-09-01T23:32:37.968Z,16.73
2022-09-01T23:37:44.219Z,16.62
2022-09-01T23:42:49.298Z,16.53
2022-09-01T23:47:55.665Z,16.53
2022-09-01T23:52:59.748Z,16.45
2022-09-01T23:58:03.695Z,16.40
